createdAt,value
2022-08-22T00:02:06.473Z,1.63
2022-08-22T00:02:49.263Z,2.10
2022-08-22T00:03:10.012Z,1.90
2022-08-22T00:04:50.723Z,2.73
2022-08-22T00:07:42.973Z,1.90
2022-08-22T00:11:10.573Z,1.90
2022-08-22T00:13:47.757Z,2.40
2022-08-22T00:16:53.460Z,2.10
2022-08-22T00:19:54.769Z,1.93
2022-08-22T00:22:38.481Z,1.70
2022-08-22T00:25:49.924Z,2.03
2022-08-22T00:28:47.204Z,2.13
2022-08-22T00:31:32.036Z,2.00
2022-08-22T00:34:09.976Z,1.90
2022-08-22T00:36:53.060Z,2.30
2022-08-22T00:39:34.133Z,2.73
2022-08-22T00:42:29.321Z,2.77
2022-08-22T00:45:21.119Z,2.50
2022-08-22T00:48:23.096Z,2.23
2022-08-22T00:51:08.535Z,1.80
2022-08-22T00:54:18.262Z,2.97
2022-08-22T00:57:20.862Z,2.10
2022-08-22T01:00:23.166Z,2.47
2022-08-22T01:03:15.180Z,1.80
2022-08-22T01:06:18.063Z,2.13
2022-08-22T01:08:58.802Z,2.17
2022-08-22T01:11:34.646Z,2.30
2022-08-22T01:14:14.764Z,2.23
2022-08-22T01:17:02.812Z,1.97
2022-08-22T01:20:00.551Z,2.37
2022-08-22T01:23:04.327Z,2.57
2022-08-22T01:25:55.843Z,1.77
2022-08-22T01:28:59.379Z,2.23
2022-08-22T01:31:54.358Z,2.23
2022-08-22T01:34:58.678Z,2.80
2022-08-22T01:37:57.041Z,2.83
2022-08-22T01:41:02.090Z,2.23
2022-08-22T01:44:35.908Z,2.97
2022-08-22T01:47:39.445Z,2.10
2022-08-22T01:50:25.138Z,2.13
2022-08-22T01:53:26.100Z,2.57
2022-08-22T01:56:22.692Z,1.97
2022-08-22T01:59:11.068Z,2.50
2022-08-22T02:01:52.707Z,2.00
2022-08-22T02:04:29.383Z,2.00
2022-08-22T02:07:43.494Z,2.03
2022-08-22T02:10:16.440Z,2.70
2022-08-22T02:13:13.035Z,2.50
2022-08-22T02:15:40.213Z,1.70
2022-08-22T02:18:07.253Z,1.93
2022-08-22T02:21:12.203Z,2.30
2022-08-22T02:23:59.017Z,2.23
2022-08-22T02:27:05.403Z,2.60
2022-08-22T02:30:11.405Z,2.10
2022-08-22T02:32:41.535Z,2.60
2022-08-22T02:35:31.123Z,2.00
2022-08-22T02:38:38.505Z,2.87
2022-08-22T02:41:26.715Z,2.10
2022-08-22T02:44:51.520Z,2.47
2022-08-22T02:47:46.194Z,1.63
2022-08-22T02:50:43.242Z,2.47
2022-08-22T02:53:33.562Z,2.10
2022-08-22T02:56:13.789Z,2.67
2022-08-22T02:59:32.134Z,1.83
2022-08-22T03:02:26.251Z,1.63
2022-08-22T03:05:15.596Z,1.93
2022-08-22T03:08:02.643Z,2.07
2022-08-22T03:10:41.511Z,2.20
2022-08-22T03:13:25.439Z,2.57
2022-08-22T03:16:04.672Z,1.80
2022-08-22T03:18:56.951Z,2.70
2022-08-22T03:21:41.338Z,2.30
2022-08-22T03:24:23.709Z,2.07
2022-08-22T03:27:15.114Z,2.13
2022-08-22T03:30:13.201Z,1.93
2022-08-22T03:32:59.282Z,2.27
2022-08-22T03:35:41.476Z,1.67
2022-08-22T03:38:32.240Z,2.70
2022-08-22T03:41:27.860Z,2.13
2022-08-22T03:44:03.804Z,1.80
2022-08-22T03:46:57.746Z,2.27
2022-08-22T03:50:05.578Z,1.90
2022-08-22T03:53:15.439Z,2.70
2022-08-22T03:56:13.611Z,2.23
2022-08-22T03:59:37.143Z,1.70
2022-08-22T04:02:42.507Z,2.27
2022-08-22T04:06:04.745Z,1.50
2022-08-22T04:09:22.350Z,2.50
2022-08-22T04:11:49.913Z,2.70
2022-08-22T04:15:12.693Z,1.93
2022-08-22T04:17:48.493Z,2.00
2022-08-22T04:20:59.522Z,2.90
2022-08-22T04:24:06.287Z,2.00
2022-08-22T04:27:07.224Z,2.17
2022-08-22T04:29:46.380Z,1.83
2022-08-22T04:32:28.948Z,2.30
2022-08-22T04:35:36.233Z,2.50
2022-08-22T04:38:20.931Z,2.10
2022-08-22T04:41:07.141Z,3.00
2022-08-22T04:43:53.181Z,1.77
2022-08-22T04:46:45.688Z,2.10
2022-08-22T04:49:46.159Z,2.53
2022-08-22T04:52:29.542Z,2.10
2022-08-22T04:55:27.288Z,2.40
2022-08-22T04:58:19.670Z,1.83
2022-08-22T05:01:19.686Z,2.47
2022-08-22T05:04:16.599Z,2.27
2022-08-22T05:06:56.217Z,1.97
2022-08-22T05:09:33.485Z,2.00
2022-08-22T05:12:09.193Z,2.03
2022-08-22T05:15:00.168Z,2.97
2022-08-22T05:17:32.252Z,2.70
2022-08-22T05:20:09.277Z,1.80
2022-08-22T05:22:45.892Z,2.80
2022-08-22T05:25:21.958Z,2.63
2022-08-22T05:27:56.776Z,2.27
2022-08-22T05:30:31.276Z,3.17
2022-08-22T05:33:34.291Z,2.80
2022-08-22T05:36:14.969Z,2.33
2022-08-22T05:38:51.542Z,2.70
2022-08-22T05:41:24.561Z,3.10
2022-08-22T05:43:54.896Z,3.17
2022-08-22T05:46:43.537Z,2.80
2022-08-22T05:49:23.587Z,2.60
2022-08-22T05:52:56.468Z,3.17
2022-08-22T05:55:52.548Z,3.20
2022-08-22T05:58:43.918Z,3.33
2022-08-22T06:01:36.070Z,2.70
2022-08-22T06:04:37.847Z,2.60
2022-08-22T06:07:14.295Z,3.10
2022-08-22T06:09:47.086Z,3.47
2022-08-22T06:12:22.263Z,3.73
2022-08-22T06:15:23.149Z,2.50
2022-08-22T06:17:58.631Z,3.60
2022-08-22T06:20:50.548Z,2.70
2022-08-22T06:23:45.125Z,3.00
2022-08-22T06:26:20.634Z,3.40
2022-08-22T06:28:55.961Z,3.20
2022-08-22T06:31:38.173Z,3.20
2022-08-22T06:34:17.431Z,2.80
2022-08-22T06:36:50.800Z,4.33
2022-08-22T06:39:32.543Z,4.03
2022-08-22T06:42:22.783Z,4.03
2022-08-22T06:45:04.739Z,3.83
2022-08-22T06:48:00.660Z,3.57
2022-08-22T06:50:42.956Z,3.77
2022-08-22T06:53:24.815Z,3.60
2022-08-22T06:56:02.792Z,3.70
2022-08-22T06:58:47.905Z,4.23
2022-08-22T07:01:33.359Z,3.57
2022-08-22T07:04:09.058Z,3.17
2022-08-22T07:06:43.240Z,3.70
2022-08-22T07:09:31.976Z,3.30
2022-08-22T07:12:11.026Z,3.73
2022-08-22T07:14:52.094Z,4.23
2022-08-22T07:17:27.776Z,3.00
2022-08-22T07:20:19.802Z,3.37
2022-08-22T07:23:02.712Z,4.30
2022-08-22T07:25:31.783Z,3.80
2022-08-22T07:28:20.068Z,4.93
2022-08-22T07:31:11.047Z,3.93
2022-08-22T07:33:48.270Z,2.70
2022-08-22T07:36:32.233Z,3.27
2022-08-22T07:39:37.095Z,3.07
2022-08-22T07:42:16.491Z,3.70
2022-08-22T07:45:11.596Z,3.17
2022-08-22T07:48:03.062Z,3.17
2022-08-22T07:51:09.085Z,2.70
2022-08-22T07:54:00.969Z,3.13
2022-08-22T07:56:40.118Z,3.40
2022-08-22T07:59:18.258Z,2.90
2022-08-22T08:01:54.769Z,3.27
2022-08-22T08:04:29.725Z,3.33
2022-08-22T08:07:02.744Z,2.80
2022-08-22T08:09:44.957Z,3.10
2022-08-22T08:12:15.779Z,2.70
2022-08-22T08:14:48.235Z,3.60
2022-08-22T08:17:30.153Z,3.30
2022-08-22T08:20:07.538Z,2.90
2022-08-22T08:22:46.654Z,3.40
2022-08-22T08:25:21.166Z,3.43
2022-08-22T08:28:09.999Z,3.23
2022-08-22T08:31:04.074Z,4.33
2022-08-22T08:33:33.699Z,3.00
2022-08-22T08:36:43.801Z,3.10
2022-08-22T08:39:32.506Z,2.60
2022-08-22T08:42:58.226Z,2.60
2022-08-22T08:46:16.739Z,3.40
2022-08-22T08:49:15.137Z,2.60
2022-08-22T08:52:20.665Z,2.37
2022-08-22T08:55:25.966Z,2.80
2022-08-22T08:58:11.619Z,2.30
2022-08-22T09:01:07.016Z,2.73
2022-08-22T09:07:01.195Z,2.70
2022-08-22T09:13:26.934Z,2.03
2022-08-22T09:19:42.192Z,2.00
2022-08-22T09:23:18.932Z,2.33
2022-08-22T09:26:01.180Z,2.20
2022-08-22T09:28:40.574Z,1.90
2022-08-22T09:31:47.623Z,1.77
2022-08-22T09:34:45.985Z,2.13
2022-08-22T09:37:59.186Z,2.17
2022-08-22T09:40:15.394Z,2.27
2022-08-22T09:40:57.838Z,2.00
2022-08-22T09:43:55.639Z,1.40
2022-08-22T09:53:21.631Z,1.87
2022-08-22T09:56:14.990Z,1.60
2022-08-22T09:59:02.234Z,2.00
2022-08-22T10:01:49.950Z,2.03
2022-08-22T10:04:44.650Z,1.83
2022-08-22T10:07:57.008Z,2.40
2022-08-22T10:14:09.655Z,2.07
2022-08-22T10:17:12.603Z,2.27
2022-08-22T10:19:59.519Z,1.87
2022-08-22T10:22:44.435Z,2.70
2022-08-22T10:28:47.939Z,2.10
2022-08-22T10:31:58.727Z,1.90
2022-08-22T10:37:47.319Z,2.03
2022-08-22T10:40:47.709Z,1.80
2022-08-22T10:43:40.804Z,2.50
2022-08-22T10:46:17.490Z,2.10
2022-08-22T10:49:18.566Z,2.37
2022-08-22T10:55:00.621Z,1.90
2022-08-22T10:58:01.940Z,2.40
2022-08-22T11:00:46.019Z,2.13
2022-08-22T11:03:38.354Z,1.77
2022-08-22T11:06:48.275Z,1.73
2022-08-22T11:09:37.073Z,2.40
2022-08-22T11:12:35.089Z,1.70
2022-08-22T11:15:24.229Z,2.17
2022-08-22T11:18:14.658Z,2.30
2022-08-22T11:21:07.349Z,1.97
2022-08-22T11:24:02.207Z,1.90
2022-08-22T11:27:12.958Z,2.17
2022-08-22T11:30:18.538Z,2.30
2022-08-22T11:33:46.130Z,2.20
2022-08-22T11:36:31.434Z,1.40
2022-08-22T11:39:45.855Z,1.90
2022-08-22T11:42:31.246Z,2.03
2022-08-22T11:45:05.358Z,2.07
2022-08-22T11:47:53.093Z,2.27
2022-08-22T11:50:35.240Z,1.83
2022-08-22T11:53:18.701Z,1.73
2022-08-22T11:56:05.776Z,2.67
2022-08-22T11:58:59.743Z,2.00
2022-08-22T12:01:34.512Z,2.00
2022-08-22T12:04:17.984Z,1.77
2022-08-22T12:07:04.083Z,1.60
2022-08-22T12:10:16.341Z,1.47
2022-08-22T12:13:11.201Z,1.70
2022-08-22T12:16:04.209Z,2.57
2022-08-22T12:18:40.004Z,1.87
2022-08-22T12:21:41.127Z,2.00
2022-08-22T12:24:47.333Z,1.50
2022-08-22T12:27:39.494Z,1.70
2022-08-22T12:31:12.213Z,2.10
2022-08-22T12:34:17.289Z,1.77
2022-08-22T12:37:27.490Z,2.20
2022-08-22T12:40:26.318Z,1.70
2022-08-22T12:43:19.449Z,1.53
2022-08-22T12:46:28.772Z,1.20
2022-08-22T12:49:14.017Z,1.33
2022-08-22T12:52:11.557Z,1.33
2022-08-22T12:55:10.235Z,1.60
2022-08-22T12:57:54.077Z,1.83
2022-08-22T13:00:35.227Z,1.43
2022-08-22T13:03:10.010Z,1.43
2022-08-22T13:05:44.199Z,1.97
2022-08-22T13:08:44.915Z,1.57
2022-08-22T13:11:23.011Z,1.30
2022-08-22T13:14:02.463Z,1.40
2022-08-22T13:16:51.199Z,2.20
2022-08-22T13:19:26.090Z,1.60
2022-08-22T13:22:19.736Z,1.80
2022-08-22T13:25:25.616Z,1.60
2022-08-22T13:28:11.464Z,1.40
2022-08-22T13:30:42.370Z,1.40
2022-08-22T13:33:27.883Z,1.53
2022-08-22T13:36:03.160Z,1.53
2022-08-22T13:38:51.908Z,1.70
2022-08-22T13:41:27.873Z,1.53
2022-08-22T13:44:39.227Z,1.70
2022-08-22T13:47:15.042Z,1.77
2022-08-22T13:50:08.286Z,2.20
2022-08-22T13:53:10.094Z,1.50
2022-08-22T13:56:01.008Z,1.20
2022-08-22T13:58:56.171Z,1.37
2022-08-22T14:01:50.655Z,1.10
2022-08-22T14:04:36.406Z,1.40
2022-08-22T14:07:06.334Z,1.20
2022-08-22T14:09:56.401Z,1.50
2022-08-22T14:12:50.255Z,1.13
2022-08-22T14:15:45.924Z,1.13
2022-08-22T14:18:31.706Z,1.20
2022-08-22T14:22:14.428Z,1.23
2022-08-22T14:24:48.307Z,1.30
2022-08-22T14:27:45.680Z,1.50
2022-08-22T14:30:24.442Z,1.10
2022-08-22T14:32:58.196Z,1.40
2022-08-22T14:35:42.033Z,1.20
2022-08-22T14:38:38.617Z,1.83
2022-08-22T14:41:14.561Z,1.77
2022-08-22T14:44:18.903Z,1.60
2022-08-22T14:46:55.237Z,1.30
2022-08-22T14:49:47.849Z,1.70
2022-08-22T14:52:41.393Z,1.00
2022-08-22T14:55:22.620Z,1.70
2022-08-22T14:58:16.416Z,1.23
2022-08-22T15:00:49.991Z,0.97
2022-08-22T15:03:20.334Z,1.97
2022-08-22T15:06:05.064Z,1.70
2022-08-22T15:08:38.787Z,1.07
2022-08-22T15:11:18.744Z,1.73
2022-08-22T15:14:12.521Z,1.53
2022-08-22T15:16:55.378Z,1.50
2022-08-22T15:19:33.406Z,1.20
2022-08-22T15:22:19.661Z,1.80
2022-08-22T15:25:23.207Z,1.43
2022-08-22T15:28:17.173Z,1.97
2022-08-22T15:31:05.368Z,1.63
2022-08-22T15:33:45.387Z,1.50
2022-08-22T15:36:27.010Z,1.23
2022-08-22T15:39:28.637Z,1.57
2022-08-22T15:41:57.351Z,1.30
2022-08-22T15:44:35.414Z,1.47
2022-08-22T15:47:10.925Z,1.20
2022-08-22T15:49:58.093Z,1.00
2022-08-22T15:52:32.130Z,1.10
2022-08-22T15:55:07.698Z,1.70
2022-08-22T15:57:42.422Z,1.20
2022-08-22T16:00:33.408Z,0.90
2022-08-22T16:03:09.862Z,3.90
2022-08-22T16:05:47.806Z,2.40
2022-08-22T16:08:32.682Z,1.23
2022-08-22T16:11:03.579Z,1.63
2022-08-22T16:13:30.583Z,1.57
2022-08-22T16:16:00.772Z,1.10
2022-08-22T16:18:33.973Z,1.10
2022-08-22T16:21:23.360Z,1.40
2022-08-22T16:23:51.028Z,1.10
2022-08-22T16:26:30.234Z,1.27
2022-08-22T16:29:18.065Z,1.20
2022-08-22T16:31:48.402Z,1.50
2022-08-22T16:34:21.305Z,1.60
2022-08-22T16:37:03.669Z,1.20
2022-08-22T16:39:41.883Z,1.53
2022-08-22T16:42:23.892Z,1.53
2022-08-22T16:45:06.038Z,1.73
2022-08-22T16:47:33.087Z,2.00
2022-08-22T16:50:18.495Z,2.27
2022-08-22T16:53:37.833Z,1.97
2022-08-22T16:56:31.672Z,1.40
2022-08-22T16:59:22.824Z,1.70
2022-08-22T17:02:06.530Z,1.50
2022-08-22T17:04:54.017Z,1.37
2022-08-22T17:07:33.481Z,1.30
2022-08-22T17:10:10.261Z,1.50
2022-08-22T17:13:06.395Z,1.47
2022-08-22T17:15:56.972Z,1.70
2022-08-22T17:18:42.815Z,1.97
2022-08-22T17:21:37.908Z,1.97
2022-08-22T17:24:38.862Z,1.70
2022-08-22T17:27:25.637Z,1.40
2022-08-22T17:30:01.422Z,1.10
2022-08-22T17:32:41.853Z,1.40
2022-08-22T17:35:33.767Z,1.77
2022-08-22T17:38:22.055Z,1.83
2022-08-22T17:41:22.595Z,1.33
2022-08-22T17:44:04.959Z,1.40
2022-08-22T17:46:50.794Z,2.43
2022-08-22T17:49:49.261Z,1.60
2022-08-22T17:52:42.921Z,1.23
2022-08-22T17:55:23.240Z,1.40
2022-08-22T17:58:10.794Z,1.70
2022-08-22T18:00:51.045Z,1.23
2022-08-22T18:03:38.417Z,1.57
2022-08-22T18:06:16.443Z,1.60
2022-08-22T18:11:51.869Z,1.90
2022-08-22T18:14:29.865Z,1.53
2022-08-22T18:16:59.419Z,1.60
2022-08-22T18:19:58.043Z,1.50
2022-08-22T18:22:34.214Z,1.70
2022-08-22T18:25:13.464Z,1.30
2022-08-22T18:27:58.521Z,1.83
2022-08-22T18:31:16.480Z,1.60
2022-08-22T18:33:57.643Z,2.10
2022-08-22T18:36:34.998Z,1.53
2022-08-22T18:39:20.800Z,1.40
2022-08-22T18:42:52.492Z,2.07
2022-08-22T18:45:45.720Z,1.40
2022-08-22T18:48:59.451Z,1.83
2022-08-22T18:51:38.825Z,1.97
2022-08-22T18:54:06.949Z,1.60
2022-08-22T18:56:54.704Z,1.70
2022-08-22T18:59:47.586Z,1.87
2022-08-22T19:02:58.267Z,1.67
2022-08-22T19:06:05.518Z,1.50
2022-08-22T19:08:42.665Z,1.80
2022-08-22T19:11:41.011Z,1.70
2022-08-22T19:14:22.085Z,1.87
2022-08-22T19:17:25.876Z,1.57
2022-08-22T19:20:46.510Z,1.60
2022-08-22T19:23:32.574Z,1.67
2022-08-22T19:26:44.860Z,1.53
2022-08-22T19:29:18.087Z,1.50
2022-08-22T19:31:53.105Z,1.93
2022-08-22T19:34:28.281Z,2.00
2022-08-22T19:37:32.101Z,1.53
2022-08-22T19:40:10.013Z,1.70
2022-08-22T19:42:44.132Z,1.63
2022-08-22T19:45:26.695Z,1.87
2022-08-22T19:48:14.772Z,1.70
2022-08-22T19:50:43.454Z,2.17
2022-08-22T19:54:02.101Z,1.77
2022-08-22T19:57:07.412Z,1.40
2022-08-22T20:00:09.786Z,2.03
2022-08-22T20:03:09.052Z,1.30
2022-08-22T20:06:33.574Z,1.43
2022-08-22T20:09:22.319Z,2.00
2022-08-22T20:12:02.819Z,1.70
2022-08-22T20:14:37.241Z,2.03
2022-08-22T20:17:25.107Z,1.60
2022-08-22T20:22:52.687Z,1.70
2022-08-22T20:25:42.514Z,1.63
2022-08-22T20:28:41.050Z,1.70
2022-08-22T20:31:22.519Z,1.80
2022-08-22T20:34:00.558Z,1.57
2022-08-22T20:36:29.306Z,2.17
2022-08-22T20:39:27.264Z,1.90
2022-08-22T20:42:10.067Z,2.07
2022-08-22T20:44:47.576Z,1.63
2022-08-22T20:47:36.200Z,2.07
2022-08-22T20:50:12.141Z,1.90
2022-08-22T20:52:54.317Z,1.80
2022-08-22T20:55:31.891Z,1.60
2022-08-22T20:58:04.502Z,1.83
2022-08-22T21:00:48.318Z,1.63
2022-08-22T21:03:48.837Z,1.87
2022-08-22T21:06:35.025Z,2.07
2022-08-22T21:09:38.212Z,1.40
2022-08-22T21:12:09.724Z,2.20
2022-08-22T21:14:46.080Z,1.60
2022-08-22T21:17:34.302Z,2.07
2022-08-22T21:20:23.249Z,2.13
2022-08-22T21:22:51.910Z,1.80
2022-08-22T21:25:19.309Z,1.73
2022-08-22T21:27:48.371Z,2.17
2022-08-22T21:30:25.563Z,1.90
2022-08-22T21:32:56.146Z,1.87
2022-08-22T21:35:33.168Z,1.40
2022-08-22T21:38:02.247Z,2.00
2022-08-22T21:40:37.153Z,1.70
2022-08-22T21:43:11.646Z,1.80
2022-08-22T21:45:38.817Z,1.90
2022-08-22T21:48:34.186Z,2.20
2022-08-22T21:51:40.261Z,2.23
2022-08-22T21:54:25.763Z,1.60
2022-08-22T21:56:58.517Z,1.57
2022-08-22T21:59:52.048Z,1.70
2022-08-22T22:02:31.280Z,2.40
2022-08-22T22:05:06.634Z,2.03
2022-08-22T22:07:41.507Z,1.73
2022-08-22T22:10:14.055Z,2.20
2022-08-22T22:12:43.370Z,2.00
2022-08-22T22:15:17.498Z,2.30
2022-08-22T22:17:44.807Z,2.37
2022-08-22T22:20:13.431Z,2.40
2022-08-22T22:22:46.329Z,2.20
2022-08-22T22:25:39.171Z,1.80
2022-08-22T22:28:10.906Z,1.53
2022-08-22T22:30:38.727Z,2.30
2022-08-22T22:33:06.478Z,1.80
2022-08-22T22:35:34.595Z,2.30
2022-08-22T22:38:02.303Z,1.70
2022-08-22T22:40:30.003Z,2.20
2022-08-22T22:42:57.290Z,2.40
2022-08-22T22:45:24.426Z,3.10
2022-08-22T22:47:51.746Z,1.53
2022-08-22T22:50:18.957Z,1.80
2022-08-22T22:52:46.041Z,2.50
2022-08-22T22:55:24.181Z,1.63
2022-08-22T22:57:58.993Z,2.37
2022-08-22T23:00:31.083Z,2.30
2022-08-22T23:03:05.416Z,2.00
2022-08-22T23:05:33.445Z,2.37
2022-08-22T23:08:01.672Z,1.70
2022-08-22T23:10:31.008Z,2.10
2022-08-22T23:12:58.903Z,2.13
2022-08-22T23:15:26.891Z,2.07
2022-08-22T23:17:54.461Z,1.30
2022-08-22T23:20:22.013Z,2.00
2022-08-22T23:22:49.898Z,3.17
2022-08-22T23:25:17.214Z,2.00
2022-08-22T23:27:44.505Z,2.83
2022-08-22T23:30:15.961Z,1.80
2022-08-22T23:32:43.115Z,2.30
2022-08-22T23:35:10.268Z,2.17
2022-08-22T23:37:37.380Z,2.13
2022-08-22T23:40:08.279Z,2.17
2022-08-22T23:42:35.557Z,2.00
2022-08-22T23:45:03.083Z,2.07
2022-08-22T23:47:30.219Z,2.07
2022-08-22T23:49:57.487Z,2.13
2022-08-22T23:52:25.251Z,2.00
2022-08-22T23:54:54.398Z,2.10
2022-08-22T23:57:27.742Z,2.23
2022-08-22T23:59:57.879Z,1.70
